createdAt,value
2022-08-07T00:00:52.740Z,3.47
2022-08-07T00:03:22.961Z,3.27
2022-08-07T00:05:54.176Z,3.33
2022-08-07T00:08:23.448Z,3.40
2022-08-07T00:10:57.503Z,3.30
2022-08-07T00:13:27.190Z,3.40
2022-08-07T00:15:55.973Z,3.40
2022-08-07T00:18:26.407Z,3.30
2022-08-07T00:21:01.389Z,3.07
2022-08-07T00:23:30.563Z,3.67
2022-08-07T00:26:13.141Z,3.33
2022-08-07T00:28:56.534Z,3.87
2022-08-07T00:31:37.363Z,3.13
2022-08-07T00:34:08.957Z,3.30
2022-08-07T00:36:42.767Z,3.37
2022-08-07T00:39:12.780Z,3.67
2022-08-07T00:41:53.616Z,3.73
2022-08-07T00:44:29.609Z,3.30
2022-08-07T00:46:57.605Z,3.43
2022-08-07T00:50:20.891Z,3.80
2022-08-07T00:52:17.673Z,4.43
2022-08-07T00:54:53.882Z,4.00
2022-08-07T00:57:26.244Z,4.43
2022-08-07T00:59:54.941Z,4.20
2022-08-07T01:02:29.326Z,4.67
2022-08-07T01:04:58.820Z,4.70
2022-08-07T01:07:29.216Z,5.00
2022-08-07T01:10:06.145Z,4.80
2022-08-07T01:12:53.082Z,4.20
2022-08-07T01:15:23.359Z,4.33
2022-08-07T01:18:17.155Z,4.73
2022-08-07T01:20:59.385Z,4.90
2022-08-07T01:23:36.725Z,4.67
2022-08-07T01:26:12.043Z,4.40
2022-08-07T01:28:41.143Z,4.87
2022-08-07T01:31:15.428Z,4.90
2022-08-07T01:33:56.108Z,5.73
2022-08-07T01:36:33.938Z,6.37
2022-08-07T01:39:10.275Z,5.30
2022-08-07T01:41:40.740Z,5.43
2022-08-07T01:44:27.748Z,5.60
2022-08-07T01:46:56.292Z,5.93
2022-08-07T01:49:24.311Z,5.43
2022-08-07T01:52:01.939Z,5.30
2022-08-07T01:54:37.762Z,5.40
2022-08-07T01:57:08.862Z,6.73
2022-08-07T01:59:54.833Z,6.33
2022-08-07T02:03:05.681Z,6.20
2022-08-07T02:05:48.306Z,6.43
2022-08-07T02:08:23.714Z,5.90
2022-08-07T02:10:58.083Z,6.10
2022-08-07T02:13:58.087Z,5.73
2022-08-07T02:16:32.848Z,6.13
2022-08-07T02:19:05.477Z,6.07
2022-08-07T02:21:55.975Z,6.80
2022-08-07T02:24:26.349Z,6.67
2022-08-07T02:27:01.278Z,6.17
2022-08-07T02:29:31.411Z,7.07
2022-08-07T02:32:01.217Z,6.57
2022-08-07T02:34:31.132Z,6.83
2022-08-07T02:37:01.392Z,7.23
2022-08-07T02:39:42.844Z,7.20
2022-08-07T02:42:14.671Z,6.57
2022-08-07T02:44:48.265Z,7.37
2022-08-07T02:47:19.530Z,7.07
2022-08-07T02:49:59.028Z,7.03
2022-08-07T02:52:33.474Z,7.43
2022-08-07T02:55:09.782Z,7.93
2022-08-07T02:58:02.826Z,7.47
2022-08-07T03:00:36.132Z,7.57
2022-08-07T03:03:13.616Z,6.43
2022-08-07T03:05:51.991Z,6.90
2022-08-07T03:08:26.850Z,7.13
2022-08-07T03:10:59.035Z,7.50
2022-08-07T03:13:29.476Z,7.47
2022-08-07T03:16:07.608Z,7.17
2022-08-07T03:18:36.313Z,7.30
2022-08-07T03:21:08.935Z,7.70
2022-08-07T03:24:20.720Z,7.43
2022-08-07T03:26:32.265Z,7.97
2022-08-07T03:29:05.128Z,8.10
2022-08-07T03:31:42.804Z,7.73
2022-08-07T03:34:18.643Z,7.87
2022-08-07T03:36:53.718Z,7.97
2022-08-07T03:39:46.276Z,7.67
2022-08-07T03:42:12.737Z,8.10
2022-08-07T03:44:42.766Z,8.40
2022-08-07T03:47:16.298Z,8.30
2022-08-07T03:49:51.873Z,8.50
2022-08-07T03:52:26.374Z,8.53
2022-08-07T03:54:57.407Z,9.27
2022-08-07T03:58:32.675Z,8.33
2022-08-07T04:00:30.619Z,9.33
2022-08-07T04:03:03.871Z,8.97
2022-08-07T04:05:39.392Z,9.13
2022-08-07T04:08:11.389Z,9.27
2022-08-07T04:10:42.388Z,9.70
2022-08-07T04:13:15.289Z,11.23
2022-08-07T04:15:45.910Z,9.63
2022-08-07T04:18:57.785Z,10.43
2022-08-07T04:21:07.225Z,9.50
2022-08-07T04:23:43.348Z,10.30
2022-08-07T04:26:28.374Z,10.83
2022-08-07T04:28:58.510Z,10.30
2022-08-07T04:31:39.114Z,10.10
2022-08-07T04:34:17.333Z,10.13
2022-08-07T04:36:52.718Z,10.10
2022-08-07T04:39:25.788Z,11.40
2022-08-07T04:41:54.285Z,11.47
2022-08-07T04:44:22.624Z,11.33
2022-08-07T05:12:52.779Z,14.07
2022-08-07T05:15:25.466Z,13.63
2022-08-07T05:18:00.809Z,13.13
2022-08-07T05:29:08.674Z,14.70
2022-08-07T05:31:40.423Z,14.67
2022-08-07T05:34:18.106Z,14.07
2022-08-07T05:36:52.746Z,14.23
2022-08-07T05:40:05.603Z,14.00
2022-08-07T05:42:12.146Z,14.43
2022-08-07T05:44:53.025Z,13.77
2022-08-07T05:48:01.059Z,12.90
2022-08-07T05:50:20.469Z,12.80
2022-08-07T05:52:48.650Z,13.97
2022-08-07T05:55:16.992Z,14.27
2022-08-07T05:57:46.817Z,13.90
2022-08-07T06:00:17.996Z,13.37
2022-08-07T06:02:49.378Z,12.80
2022-08-07T06:05:20.433Z,13.37
2022-08-07T06:08:14.885Z,12.53
2022-08-07T06:10:45.875Z,12.27
2022-08-07T06:13:20.914Z,11.70
2022-08-07T06:16:13.491Z,11.80
2022-08-07T06:18:43.086Z,12.37
2022-08-07T06:22:16.400Z,11.47
2022-08-07T06:24:37.549Z,10.63
2022-08-07T06:26:49.667Z,11.37
2022-08-07T06:29:19.001Z,10.67
2022-08-07T06:31:50.481Z,9.80
2022-08-07T06:34:20.568Z,9.30
2022-08-07T06:36:52.146Z,9.37
2022-08-07T06:40:16.391Z,8.83
2022-08-07T06:42:12.806Z,8.13
2022-08-07T06:44:41.787Z,7.73
2022-08-07T06:47:12.257Z,7.93
2022-08-07T06:49:50.990Z,8.03
2022-08-07T06:52:31.654Z,7.73
2022-08-07T06:55:32.148Z,7.70
2022-08-07T06:57:57.466Z,7.20
2022-08-07T07:00:29.093Z,6.83
2022-08-07T07:03:01.183Z,7.80
2022-08-07T07:06:03.542Z,6.80
2022-08-07T07:08:31.013Z,6.30
2022-08-07T07:11:13.318Z,6.87
2022-08-07T07:13:57.986Z,5.80
2022-08-07T07:16:38.925Z,5.50
2022-08-07T07:19:55.087Z,5.13
2022-08-07T07:22:32.344Z,5.00
2022-08-07T07:25:14.275Z,4.80
2022-08-07T07:27:58.385Z,4.37
2022-08-07T07:30:38.489Z,4.20
2022-08-07T07:33:11.837Z,4.20
2022-08-07T07:36:04.585Z,4.50
2022-08-07T07:38:35.821Z,4.03
2022-08-07T07:41:08.656Z,3.40
2022-08-07T07:43:47.836Z,3.67
2022-08-07T07:46:36.834Z,3.93
2022-08-07T07:50:32.477Z,3.87
2022-08-07T07:52:12.950Z,3.63
2022-08-07T07:54:44.139Z,4.27
2022-08-07T07:57:51.518Z,4.30
2022-08-07T08:00:12.408Z,4.27
2022-08-07T08:03:04.841Z,3.77
2022-08-07T08:05:54.428Z,4.00
2022-08-07T08:08:34.960Z,3.57
2022-08-07T08:11:05.264Z,3.23
2022-08-07T08:13:53.331Z,2.97
2022-08-07T08:16:30.021Z,3.37
2022-08-07T08:19:09.957Z,2.87
2022-08-07T08:22:07.808Z,2.70
2022-08-07T08:25:04.519Z,3.03
2022-08-07T08:27:56.345Z,2.80
2022-08-07T08:30:26.882Z,2.63
2022-08-07T08:32:59.519Z,2.50
2022-08-07T08:35:39.515Z,2.30
2022-08-07T08:38:18.411Z,2.20
2022-08-07T08:40:57.264Z,2.93
2022-08-07T08:43:42.283Z,2.50
2022-08-07T08:46:20.404Z,2.87
2022-08-07T08:48:56.580Z,2.10
2022-08-07T08:52:12.839Z,2.30
2022-08-07T08:54:25.941Z,2.17
2022-08-07T08:56:58.644Z,2.70
2022-08-07T08:59:41.999Z,2.03
2022-08-07T09:02:36.498Z,2.10
2022-08-07T09:05:36.793Z,2.27
2022-08-07T09:08:24.218Z,2.13
2022-08-07T09:11:08.251Z,2.20
2022-08-07T09:13:44.434Z,2.10
2022-08-07T09:16:30.558Z,2.00
2022-08-07T09:19:51.354Z,2.40
2022-08-07T09:24:28.024Z,2.00
2022-08-07T09:25:17.197Z,1.90
2022-08-07T09:28:00.563Z,1.42
2022-08-07T09:30:44.237Z,1.90
2022-08-07T09:33:56.853Z,1.90
2022-08-07T09:36:35.901Z,1.73
2022-08-07T09:39:55.290Z,2.30
2022-08-07T09:42:22.946Z,1.77
2022-08-07T09:47:23.741Z,1.70
2022-08-07T09:48:15.290Z,1.63
2022-08-07T09:51:00.792Z,1.55
2022-08-07T09:53:41.330Z,1.58
2022-08-07T09:56:47.093Z,1.63
2022-08-07T10:00:00.989Z,1.42
2022-08-07T10:02:57.838Z,1.52
2022-08-07T10:06:04.454Z,2.10
2022-08-07T10:08:49.598Z,1.48
2022-08-07T10:12:01.427Z,1.83
2022-08-07T10:14:55.049Z,1.83
2022-08-07T10:18:01.387Z,1.80
2022-08-07T10:20:44.575Z,1.58
2022-08-07T10:24:05.194Z,1.90
2022-08-07T10:26:51.807Z,1.52
2022-08-07T10:29:51.515Z,1.27
2022-08-07T10:32:51.530Z,1.20
2022-08-07T10:35:55.837Z,1.20
2022-08-07T10:38:48.417Z,1.33
2022-08-07T10:41:51.985Z,1.75
2022-08-07T10:44:28.665Z,1.35
2022-08-07T10:47:27.159Z,1.65
2022-08-07T10:50:15.257Z,1.50
2022-08-07T10:52:54.238Z,1.60
2022-08-07T10:55:38.079Z,1.17
2022-08-07T10:58:33.360Z,1.30
2022-08-07T11:01:18.497Z,1.35
2022-08-07T11:04:16.595Z,1.05
2022-08-07T11:06:52.957Z,1.10
2022-08-07T11:10:07.161Z,1.10
2022-08-07T11:12:31.801Z,1.02
2022-08-07T11:15:14.754Z,1.00
2022-08-07T11:17:50.629Z,0.90
2022-08-07T11:20:27.478Z,1.00
2022-08-07T11:23:04.124Z,1.30
2022-08-07T11:25:48.217Z,1.10
2022-08-07T11:28:26.690Z,0.90
2022-08-07T11:31:13.830Z,0.95
2022-08-07T11:33:54.137Z,0.95
2022-08-07T11:36:40.610Z,1.08
2022-08-07T11:39:19.785Z,0.80
2022-08-07T11:42:02.421Z,0.93
2022-08-07T11:44:52.501Z,0.90
2022-08-07T11:47:56.450Z,1.20
2022-08-07T11:50:44.363Z,1.10
2022-08-07T11:53:38.112Z,1.10
2022-08-07T11:56:29.262Z,1.10
2022-08-07T12:00:10.137Z,0.95
2022-08-07T12:02:20.968Z,0.93
2022-08-07T12:05:09.183Z,1.02
2022-08-07T12:08:03.575Z,1.08
2022-08-07T12:10:41.912Z,1.10
2022-08-07T12:13:18.521Z,1.20
2022-08-07T12:16:06.705Z,1.10
2022-08-07T12:18:45.122Z,1.17
2022-08-07T12:22:35.683Z,1.10
2022-08-07T12:24:38.446Z,1.05
2022-08-07T12:27:14.879Z,1.08
2022-08-07T12:29:52.869Z,1.20
2022-08-07T12:32:31.108Z,1.27
2022-08-07T12:35:05.746Z,1.20
2022-08-07T12:38:09.333Z,1.40
2022-08-07T12:40:47.072Z,1.17
2022-08-07T12:44:02.791Z,1.20
2022-08-07T12:46:26.559Z,1.30
2022-08-07T12:49:10.141Z,1.10
2022-08-07T12:52:14.564Z,1.00
2022-08-07T12:54:54.628Z,0.73
2022-08-07T12:57:50.915Z,1.02
2022-08-07T13:00:20.901Z,0.82
2022-08-07T13:03:27.120Z,1.00
2022-08-07T13:06:27.325Z,1.08
2022-08-07T13:09:12.571Z,1.00
2022-08-07T13:12:10.405Z,0.98
2022-08-07T13:14:52.744Z,0.90
2022-08-07T13:17:40.075Z,1.00
2022-08-07T13:20:17.777Z,1.00
2022-08-07T13:22:52.463Z,1.10
2022-08-07T13:25:30.700Z,1.40
2022-08-07T13:28:12.829Z,1.20
2022-08-07T13:30:52.370Z,1.20
2022-08-07T13:34:33.003Z,1.10
2022-08-07T13:36:25.841Z,1.60
2022-08-07T13:39:03.172Z,1.30
2022-08-07T13:41:47.613Z,1.10
2022-08-07T13:44:26.151Z,1.30
2022-08-07T13:46:59.618Z,1.50
2022-08-07T13:50:32.722Z,1.45
2022-08-07T13:52:33.552Z,1.30
2022-08-07T13:55:11.196Z,1.25
2022-08-07T13:58:02.090Z,1.38
2022-08-07T14:00:50.593Z,1.20
2022-08-07T14:03:29.602Z,1.08
2022-08-07T14:06:14.980Z,1.45
2022-08-07T14:08:53.532Z,1.20
2022-08-07T14:11:24.375Z,1.50
2022-08-07T14:14:04.820Z,1.55
2022-08-07T14:16:38.148Z,0.98
2022-08-07T14:20:38.304Z,1.15
2022-08-07T14:22:11.406Z,1.20
2022-08-07T14:24:43.103Z,0.95
2022-08-07T14:30:11.984Z,1.20
2022-08-07T14:32:45.608Z,1.48
2022-08-07T14:35:43.259Z,1.80
2022-08-07T14:38:26.296Z,1.70
2022-08-07T14:41:03.989Z,1.42
2022-08-07T14:46:31.529Z,1.30
2022-08-07T14:52:04.226Z,1.38
2022-08-07T14:57:57.952Z,1.30
2022-08-07T15:03:19.810Z,1.70
2022-08-07T15:05:55.326Z,1.35
2022-08-07T15:08:47.592Z,1.60
2022-08-07T15:11:50.814Z,1.23
2022-08-07T15:14:17.677Z,1.38
2022-08-07T15:16:54.992Z,1.40
2022-08-07T15:20:30.363Z,1.65
2022-08-07T15:25:19.315Z,1.33
2022-08-07T15:28:32.246Z,1.50
2022-08-07T15:31:04.839Z,1.25
2022-08-07T15:33:33.555Z,1.30
2022-08-07T15:36:07.751Z,1.40
2022-08-07T15:44:23.709Z,1.63
2022-08-07T15:47:08.627Z,1.50
2022-08-07T15:50:03.769Z,1.48
2022-08-07T15:52:30.687Z,1.60
2022-08-07T15:55:02.460Z,2.67
2022-08-07T15:57:47.705Z,1.40
2022-08-07T16:00:31.115Z,1.60
2022-08-07T16:03:05.475Z,1.83
2022-08-07T16:05:34.745Z,1.63
2022-08-07T16:08:31.754Z,1.45
2022-08-07T16:11:03.473Z,1.60
2022-08-07T16:13:58.502Z,1.77
2022-08-07T16:16:48.541Z,1.20
2022-08-07T16:19:41.820Z,1.75
2022-08-07T16:22:36.144Z,1.60
2022-08-07T16:25:54.070Z,1.70
2022-08-07T16:30:07.033Z,1.83
2022-08-07T16:31:51.899Z,1.70
2022-08-07T16:34:26.667Z,1.70
2022-08-07T16:38:04.177Z,1.70
2022-08-07T16:40:35.187Z,1.80
2022-08-07T16:43:15.050Z,1.45
2022-08-07T16:47:06.758Z,1.45
2022-08-07T16:50:28.883Z,1.77
2022-08-07T16:52:55.577Z,1.60
2022-08-07T16:55:47.459Z,1.63
2022-08-07T16:58:25.619Z,1.70
2022-08-07T17:01:24.687Z,1.67
2022-08-07T17:04:12.459Z,1.85
2022-08-07T17:07:02.748Z,1.70
2022-08-07T17:10:05.868Z,1.83
2022-08-07T17:12:44.407Z,1.98
2022-08-07T17:15:20.763Z,1.85
2022-08-07T17:17:58.751Z,1.70
2022-08-07T17:20:32.937Z,1.88
2022-08-07T17:23:11.605Z,2.22
2022-08-07T17:25:54.449Z,1.80
2022-08-07T17:28:33.244Z,1.92
2022-08-07T17:31:15.725Z,1.83
2022-08-07T17:34:18.009Z,4.13
2022-08-07T17:36:58.325Z,2.23
2022-08-07T17:39:58.221Z,2.03
2022-08-07T17:42:59.593Z,1.90
2022-08-07T17:45:35.563Z,2.30
2022-08-07T17:48:10.337Z,1.90
2022-08-07T17:50:54.397Z,2.80
2022-08-07T17:54:01.272Z,2.33
2022-08-07T17:56:33.541Z,2.20
2022-08-07T17:59:10.441Z,2.40
2022-08-07T18:01:56.746Z,2.20
2022-08-07T18:04:34.163Z,1.87
2022-08-07T18:07:20.521Z,2.00
2022-08-07T18:10:06.596Z,2.40
2022-08-07T18:12:52.489Z,2.40
2022-08-07T18:15:32.877Z,2.50
2022-08-07T18:18:46.371Z,2.23
2022-08-07T18:21:37.403Z,2.30
2022-08-07T18:24:01.636Z,2.03
2022-08-07T18:26:49.347Z,2.20
2022-08-07T18:30:07.970Z,2.53
2022-08-07T18:32:25.633Z,2.07
2022-08-07T18:35:15.947Z,2.07
2022-08-07T18:38:57.300Z,2.40
2022-08-07T18:41:17.040Z,2.40
2022-08-07T18:43:58.998Z,2.63
2022-08-07T18:46:43.309Z,2.27
2022-08-07T18:50:31.361Z,2.10
2022-08-07T18:52:52.794Z,2.57
2022-08-07T18:55:40.858Z,2.03
2022-08-07T18:58:26.594Z,2.10
2022-08-07T19:01:06.866Z,2.37
2022-08-07T19:03:45.850Z,2.50
2022-08-07T19:06:21.397Z,2.70
2022-08-07T19:09:09.580Z,2.77
2022-08-07T19:12:18.073Z,2.30
2022-08-07T19:14:59.507Z,2.23
2022-08-07T19:17:59.080Z,2.20
2022-08-07T19:20:36.676Z,2.80
2022-08-07T19:23:19.403Z,2.70
2022-08-07T19:26:25.142Z,2.57
2022-08-07T19:30:58.340Z,3.07
2022-08-07T19:32:08.324Z,2.70
2022-08-07T19:34:47.921Z,3.10
2022-08-07T19:37:18.801Z,2.73
2022-08-07T19:40:01.557Z,4.43
2022-08-07T19:42:40.505Z,3.03
2022-08-07T19:46:04.999Z,2.63
2022-08-07T19:48:06.648Z,2.93
2022-08-07T19:50:53.237Z,2.83
2022-08-07T19:54:31.666Z,3.03
2022-08-07T19:57:56.760Z,3.30
2022-08-07T19:59:03.430Z,3.40
2022-08-07T20:01:52.787Z,2.93
2022-08-07T20:04:31.937Z,3.60
2022-08-07T20:07:10.130Z,3.70
2022-08-07T20:10:36.903Z,3.50
2022-08-07T20:12:38.030Z,3.80
2022-08-07T20:15:18.731Z,3.13
2022-08-07T20:18:01.410Z,3.50
2022-08-07T20:20:34.190Z,3.53
2022-08-07T20:23:22.768Z,4.00
2022-08-07T20:26:03.331Z,4.13
2022-08-07T20:28:32.344Z,4.00
2022-08-07T20:31:02.729Z,3.63
2022-08-07T20:33:37.581Z,3.97
2022-08-07T20:36:09.807Z,4.17
2022-08-07T20:38:53.713Z,4.07
2022-08-07T20:41:34.010Z,4.00
2022-08-07T20:44:12.522Z,4.80
2022-08-07T20:46:45.444Z,5.13
2022-08-07T20:50:00.200Z,4.60
2022-08-07T20:52:16.711Z,4.30
2022-08-07T20:54:53.851Z,4.30
2022-08-07T20:57:28.096Z,4.70
2022-08-07T21:00:04.440Z,4.23
2022-08-07T21:02:57.626Z,4.47
2022-08-07T21:05:54.656Z,4.00
2022-08-07T21:08:35.045Z,4.33
2022-08-07T21:11:10.912Z,4.50
2022-08-07T21:13:43.720Z,4.80
2022-08-07T21:16:29.160Z,4.90
2022-08-07T21:19:00.643Z,5.47
2022-08-07T21:21:33.207Z,4.97
2022-08-07T21:24:25.133Z,5.37
2022-08-07T21:27:00.074Z,4.67
2022-08-07T21:29:33.661Z,5.27
2022-08-07T21:32:48.745Z,5.07
2022-08-07T21:35:11.347Z,4.90
2022-08-07T21:37:58.971Z,5.40
2022-08-07T21:40:38.182Z,5.70
2022-08-07T21:43:10.608Z,5.40
2022-08-07T21:46:05.219Z,5.73
2022-08-07T21:48:42.413Z,6.10
2022-08-07T21:51:25.399Z,5.93
2022-08-07T21:53:59.668Z,6.17
2022-08-07T21:56:42.393Z,6.20
2022-08-07T22:00:04.578Z,5.60
2022-08-07T22:02:38.646Z,6.10
2022-08-07T22:05:22.204Z,6.20
2022-08-07T22:08:02.781Z,6.43
2022-08-07T22:10:35.457Z,6.77
2022-08-07T22:13:09.075Z,6.60
2022-08-07T22:16:42.597Z,6.27
2022-08-07T22:18:38.410Z,6.23
2022-08-07T22:21:15.868Z,6.30
2022-08-07T22:23:56.306Z,6.60
2022-08-07T22:26:29.406Z,6.30
2022-08-07T22:29:08.770Z,6.27
2022-08-07T22:32:03.384Z,6.83
2022-08-07T22:34:41.638Z,7.53
2022-08-07T22:37:23.735Z,6.60
2022-08-07T22:40:05.105Z,6.97
2022-08-07T22:42:36.129Z,7.27
2022-08-07T22:45:11.104Z,7.30
2022-08-07T22:48:13.735Z,7.43
2022-08-07T22:51:22.291Z,7.83
2022-08-07T22:54:06.377Z,7.20
2022-08-07T22:56:57.955Z,7.90
2022-08-07T22:59:55.585Z,7.70
2022-08-07T23:02:32.238Z,7.13
2022-08-07T23:06:08.404Z,7.50
2022-08-07T23:08:30.332Z,7.13
2022-08-07T23:11:12.876Z,6.77
2022-08-07T23:14:15.033Z,7.27
2022-08-07T23:16:58.474Z,6.90
2022-08-07T23:19:58.543Z,6.90
2022-08-07T23:22:43.244Z,8.17
2022-08-07T23:25:28.624Z,6.97
2022-08-07T23:28:21.817Z,7.17
2022-08-07T23:31:13.890Z,7.27
2022-08-07T23:34:35.434Z,7.33
2022-08-07T23:37:19.816Z,7.70
2022-08-07T23:40:05.158Z,7.00
2022-08-07T23:42:53.389Z,6.90
2022-08-07T23:46:01.707Z,7.37
2022-08-07T23:48:52.920Z,7.20
2022-08-07T23:52:58.711Z,7.63
2022-08-07T23:54:36.128Z,6.80
2022-08-07T23:57:20.133Z,7.23
